sensor_id;sensor_type;location;lat;lon;timestamp;P1;durP1;ratioP1;P2;durP2;ratioP2
41829;SDS011;38614;43.472;23.936;2022-12-13T00:04:51;6.60;;;2.35;;
41829;SDS011;38614;43.472;23.936;2022-12-13T00:07:39;5.27;;;2.90;;
41829;SDS011;38614;43.472;23.936;2022-12-13T00:10:27;5.70;;;2.60;;
41829;SDS011;38614;43.472;23.936;2022-12-13T00:13:14;5.30;;;2.67;;
41829;SDS011;38614;43.472;23.936;2022-12-13T00:16:04;5.63;;;3.13;;
41829;SDS011;38614;43.472;23.936;2022-12-13T00:18:55;2.37;;;2.10;;
41829;SDS011;38614;43.472;23.936;2022-12-13T00:21:44;4.10;;;2.83;;
41829;SDS011;38614;43.472;23.936;2022-12-13T00:24:32;6.20;;;2.70;;
41829;SDS011;38614;43.472;23.936;2022-12-13T00:27:20;3.97;;;3.10;;
41829;SDS011;38614;43.472;23.936;2022-12-13T00:30:08;3.97;;;2.63;;
41829;SDS011;38614;43.472;23.936;2022-12-13T00:32:56;5.90;;;2.43;;
41829;SDS011;38614;43.472;23.936;2022-12-13T00:35:43;10.13;;;4.23;;
41829;SDS011;38614;43.472;23.936;2022-12-13T00:38:32;7.27;;;3.13;;
41829;SDS011;38614;43.472;23.936;2022-12-13T00:41:22;5.88;;;2.88;;
41829;SDS011;38614;43.472;23.936;2022-12-13T00:44:10;5.53;;;2.83;;
41829;SDS011;38614;43.472;23.936;2022-12-13T00:46:59;6.53;;;3.00;;
41829;SDS011;38614;43.472;23.936;2022-12-13T00:49:47;6.83;;;3.23;;
41829;SDS011;38614;43.472;23.936;2022-12-13T00:52:34;3.80;;;2.37;;
41829;SDS011;38614;43.472;23.936;2022-12-13T00:55:22;3.63;;;2.33;;
41829;SDS011;38614;43.472;23.936;2022-12-13T00:58:10;3.37;;;2.50;;
41829;SDS011;38614;43.472;23.936;2022-12-13T01:01:01;5.47;;;2.57;;
41829;SDS011;38614;43.472;23.936;2022-12-13T01:03:54;7.77;;;3.57;;
41829;SDS011;38614;43.472;23.936;2022-12-13T01:06:44;6.28;;;2.17;;
41829;SDS011;38614;43.472;23.936;2022-12-13T01:09:36;3.13;;;2.15;;
41829;SDS011;38614;43.472;23.936;2022-12-13T01:12:25;5.13;;;2.63;;
41829;SDS011;38614;43.472;23.936;2022-12-13T01:15:13;4.55;;;2.90;;
41829;SDS011;38614;43.472;23.936;2022-12-13T01:18:04;6.53;;;1.83;;
41829;SDS011;38614;43.472;23.936;2022-12-13T01:21:00;3.63;;;1.85;;
41829;SDS011;38614;43.472;23.936;2022-12-13T01:23:51;10.70;;;2.88;;
41829;SDS011;38614;43.472;23.936;2022-12-13T01:26:39;14.80;;;2.83;;
41829;SDS011;38614;43.472;23.936;2022-12-13T01:29:26;3.72;;;2.00;;
41829;SDS011;38614;43.472;23.936;2022-12-13T01:32:14;5.05;;;2.45;;
41829;SDS011;38614;43.472;23.936;2022-12-13T01:35:02;6.32;;;2.13;;
41829;SDS011;38614;43.472;23.936;2022-12-13T01:37:50;5.82;;;2.30;;
41829;SDS011;38614;43.472;23.936;2022-12-13T01:40:50;6.28;;;2.35;;
41829;SDS011;38614;43.472;23.936;2022-12-13T01:46:33;3.53;;;1.92;;
41829;SDS011;38614;43.472;23.936;2022-12-13T01:49:22;3.42;;;1.77;;
41829;SDS011;38614;43.472;23.936;2022-12-13T01:52:12;8.98;;;2.42;;
41829;SDS011;38614;43.472;23.936;2022-12-13T01:55:02;6.37;;;3.17;;
41829;SDS011;38614;43.472;23.936;2022-12-13T02:00:44;5.47;;;2.58;;
41829;SDS011;38614;43.472;23.936;2022-12-13T02:03:34;2.95;;;1.80;;
41829;SDS011;38614;43.472;23.936;2022-12-13T02:06:24;5.07;;;2.78;;
41829;SDS011;38614;43.472;23.936;2022-12-13T02:09:18;6.15;;;2.03;;
41829;SDS011;38614;43.472;23.936;2022-12-13T02:12:07;4.60;;;2.47;;
41829;SDS011;38614;43.472;23.936;2022-12-13T02:14:54;3.90;;;2.22;;
41829;SDS011;38614;43.472;23.936;2022-12-13T02:18:12;3.15;;;2.25;;
41829;SDS011;38614;43.472;23.936;2022-12-13T02:21:20;3.85;;;2.08;;
41829;SDS011;38614;43.472;23.936;2022-12-13T02:30:41;3.27;;;2.00;;
41829;SDS011;38614;43.472;23.936;2022-12-13T02:33:40;5.93;;;2.10;;
41829;SDS011;38614;43.472;23.936;2022-12-13T02:39:34;4.17;;;2.90;;
41829;SDS011;38614;43.472;23.936;2022-12-13T02:42:30;4.10;;;2.50;;
41829;SDS011;38614;43.472;23.936;2022-12-13T02:45:27;6.00;;;2.57;;
41829;SDS011;38614;43.472;23.936;2022-12-13T02:48:27;8.37;;;2.60;;
41829;SDS011;38614;43.472;23.936;2022-12-13T02:51:18;4.33;;;2.07;;
41829;SDS011;38614;43.472;23.936;2022-12-13T02:54:08;4.20;;;2.53;;
41829;SDS011;38614;43.472;23.936;2022-12-13T02:56:56;5.10;;;2.30;;
41829;SDS011;38614;43.472;23.936;2022-12-13T02:59:45;8.30;;;2.07;;
41829;SDS011;38614;43.472;23.936;2022-12-13T03:05:46;8.10;;;2.27;;
41829;SDS011;38614;43.472;23.936;2022-12-13T03:12:23;4.67;;;2.53;;
41829;SDS011;38614;43.472;23.936;2022-12-13T03:16:16;5.60;;;2.53;;
41829;SDS011;38614;43.472;23.936;2022-12-13T03:19:09;2.40;;;1.87;;
41829;SDS011;38614;43.472;23.936;2022-12-13T03:21:58;5.63;;;2.40;;
41829;SDS011;38614;43.472;23.936;2022-12-13T03:24:46;2.93;;;2.33;;
41829;SDS011;38614;43.472;23.936;2022-12-13T03:27:33;5.47;;;2.80;;
41829;SDS011;38614;43.472;23.936;2022-12-13T03:30:21;3.43;;;2.43;;
41829;SDS011;38614;43.472;23.936;2022-12-13T03:33:09;6.10;;;2.93;;
41829;SDS011;38614;43.472;23.936;2022-12-13T03:35:57;5.87;;;2.73;;
41829;SDS011;38614;43.472;23.936;2022-12-13T03:38:45;5.80;;;3.20;;
41829;SDS011;38614;43.472;23.936;2022-12-13T03:41:34;7.37;;;2.50;;
41829;SDS011;38614;43.472;23.936;2022-12-13T03:44:22;3.67;;;2.50;;
41829;SDS011;38614;43.472;23.936;2022-12-13T03:47:17;8.23;;;2.73;;
41829;SDS011;38614;43.472;23.936;2022-12-13T03:50:05;4.73;;;2.33;;
41829;SDS011;38614;43.472;23.936;2022-12-13T03:53:13;5.73;;;2.50;;
41829;SDS011;38614;43.472;23.936;2022-12-13T03:56:18;3.83;;;2.13;;
41829;SDS011;38614;43.472;23.936;2022-12-13T03:59:06;7.83;;;2.40;;
41829;SDS011;38614;43.472;23.936;2022-12-13T04:01:54;5.93;;;2.67;;
41829;SDS011;38614;43.472;23.936;2022-12-13T04:04:42;4.33;;;2.77;;
41829;SDS011;38614;43.472;23.936;2022-12-13T04:07:29;10.37;;;3.47;;
41829;SDS011;38614;43.472;23.936;2022-12-13T04:10:20;5.80;;;2.73;;
41829;SDS011;38614;43.472;23.936;2022-12-13T04:13:12;3.20;;;1.83;;
41829;SDS011;38614;43.472;23.936;2022-12-13T04:16:18;2.63;;;2.17;;
41829;SDS011;38614;43.472;23.936;2022-12-13T04:19:06;5.73;;;2.50;;
41829;SDS011;38614;43.472;23.936;2022-12-13T04:21:54;8.93;;;3.97;;
41829;SDS011;38614;43.472;23.936;2022-12-13T04:24:42;5.70;;;2.97;;
41829;SDS011;38614;43.472;23.936;2022-12-13T04:27:30;11.43;;;3.33;;
41829;SDS011;38614;43.472;23.936;2022-12-13T04:30:17;5.37;;;3.17;;
41829;SDS011;38614;43.472;23.936;2022-12-13T04:33:05;4.33;;;2.70;;
41829;SDS011;38614;43.472;23.936;2022-12-13T04:35:53;14.77;;;5.80;;
41829;SDS011;38614;43.472;23.936;2022-12-13T04:38:41;7.43;;;4.40;;
41829;SDS011;38614;43.472;23.936;2022-12-13T04:41:28;8.37;;;4.50;;
41829;SDS011;38614;43.472;23.936;2022-12-13T04:44:21;9.63;;;3.97;;
41829;SDS011;38614;43.472;23.936;2022-12-13T04:47:16;7.60;;;3.10;;
41829;SDS011;38614;43.472;23.936;2022-12-13T04:50:06;6.97;;;2.97;;
41829;SDS011;38614;43.472;23.936;2022-12-13T04:52:54;12.97;;;2.77;;
41829;SDS011;38614;43.472;23.936;2022-12-13T04:55:42;8.47;;;3.83;;
41829;SDS011;38614;43.472;23.936;2022-12-13T04:58:30;7.63;;;3.53;;
41829;SDS011;38614;43.472;23.936;2022-12-13T05:01:21;13.60;;;5.73;;
41829;SDS011;38614;43.472;23.936;2022-12-13T05:04:09;12.63;;;5.97;;
41829;SDS011;38614;43.472;23.936;2022-12-13T05:06:56;4.07;;;2.93;;
41829;SDS011;38614;43.472;23.936;2022-12-13T05:09:44;7.80;;;3.57;;
41829;SDS011;38614;43.472;23.936;2022-12-13T05:12:32;6.30;;;3.50;;
41829;SDS011;38614;43.472;23.936;2022-12-13T05:15:19;6.83;;;3.87;;
41829;SDS011;38614;43.472;23.936;2022-12-13T05:18:07;6.53;;;3.17;;
41829;SDS011;38614;43.472;23.936;2022-12-13T05:21:04;6.13;;;2.87;;
41829;SDS011;38614;43.472;23.936;2022-12-13T05:23:53;6.30;;;3.17;;
41829;SDS011;38614;43.472;23.936;2022-12-13T05:26:41;9.43;;;2.60;;
41829;SDS011;38614;43.472;23.936;2022-12-13T05:29:31;4.10;;;2.80;;
41829;SDS011;38614;43.472;23.936;2022-12-13T05:32:19;8.53;;;2.67;;
41829;SDS011;38614;43.472;23.936;2022-12-13T05:35:07;8.63;;;4.20;;
41829;SDS011;38614;43.472;23.936;2022-12-13T05:37:54;10.13;;;3.50;;
41829;SDS011;38614;43.472;23.936;2022-12-13T05:40:42;4.83;;;3.33;;
41829;SDS011;38614;43.472;23.936;2022-12-13T05:43:30;5.63;;;3.80;;
41829;SDS011;38614;43.472;23.936;2022-12-13T05:46:29;6.43;;;3.80;;
41829;SDS011;38614;43.472;23.936;2022-12-13T05:49:21;9.85;;;4.63;;
41829;SDS011;38614;43.472;23.936;2022-12-13T05:52:18;8.67;;;3.43;;
41829;SDS011;38614;43.472;23.936;2022-12-13T05:55:16;7.37;;;3.33;;
41829;SDS011;38614;43.472;23.936;2022-12-13T05:58:04;10.47;;;3.97;;
41829;SDS011;38614;43.472;23.936;2022-12-13T06:01:06;4.10;;;2.63;;
41829;SDS011;38614;43.472;23.936;2022-12-13T06:03:55;5.20;;;3.13;;
41829;SDS011;38614;43.472;23.936;2022-12-13T06:06:43;6.10;;;2.90;;
41829;SDS011;38614;43.472;23.936;2022-12-13T06:09:30;6.17;;;3.77;;
41829;SDS011;38614;43.472;23.936;2022-12-13T06:12:25;8.03;;;4.40;;
41829;SDS011;38614;43.472;23.936;2022-12-13T06:15:18;5.87;;;2.77;;
41829;SDS011;38614;43.472;23.936;2022-12-13T06:18:08;9.50;;;4.17;;
41829;SDS011;38614;43.472;23.936;2022-12-13T06:20:56;6.07;;;4.00;;
41829;SDS011;38614;43.472;23.936;2022-12-13T06:23:46;7.37;;;4.63;;
41829;SDS011;38614;43.472;23.936;2022-12-13T06:26:36;8.50;;;4.73;;
41829;SDS011;38614;43.472;23.936;2022-12-13T06:29:25;6.67;;;4.23;;
41829;SDS011;38614;43.472;23.936;2022-12-13T06:32:12;6.33;;;3.53;;
41829;SDS011;38614;43.472;23.936;2022-12-13T06:35:00;11.00;;;4.33;;
41829;SDS011;38614;43.472;23.936;2022-12-13T06:38:08;12.90;;;3.10;;
41829;SDS011;38614;43.472;23.936;2022-12-13T06:41:11;7.17;;;3.70;;
41829;SDS011;38614;43.472;23.936;2022-12-13T06:44:01;8.13;;;3.43;;
41829;SDS011;38614;43.472;23.936;2022-12-13T06:46:48;6.40;;;3.37;;
41829;SDS011;38614;43.472;23.936;2022-12-13T06:49:36;8.37;;;3.97;;
41829;SDS011;38614;43.472;23.936;2022-12-13T06:52:24;8.57;;;3.33;;
41829;SDS011;38614;43.472;23.936;2022-12-13T06:55:12;5.63;;;2.37;;
41829;SDS011;38614;43.472;23.936;2022-12-13T06:58:00;5.73;;;3.70;;
41829;SDS011;38614;43.472;23.936;2022-12-13T07:00:47;7.87;;;4.43;;
41829;SDS011;38614;43.472;23.936;2022-12-13T07:03:35;10.23;;;3.70;;
41829;SDS011;38614;43.472;23.936;2022-12-13T07:06:24;6.60;;;3.70;;
41829;SDS011;38614;43.472;23.936;2022-12-13T07:09:14;8.53;;;3.53;;
41829;SDS011;38614;43.472;23.936;2022-12-13T07:12:02;8.70;;;4.40;;
41829;SDS011;38614;43.472;23.936;2022-12-13T07:14:54;7.47;;;2.83;;
41829;SDS011;38614;43.472;23.936;2022-12-13T07:17:42;8.33;;;2.97;;
41829;SDS011;38614;43.472;23.936;2022-12-13T07:20:30;11.37;;;4.47;;
41829;SDS011;38614;43.472;23.936;2022-12-13T07:23:17;11.10;;;4.80;;
41829;SDS011;38614;43.472;23.936;2022-12-13T07:26:10;8.47;;;4.67;;
41829;SDS011;38614;43.472;23.936;2022-12-13T07:28:58;15.10;;;4.63;;
41829;SDS011;38614;43.472;23.936;2022-12-13T07:31:46;11.43;;;5.60;;
41829;SDS011;38614;43.472;23.936;2022-12-13T07:34:34;12.03;;;5.07;;
41829;SDS011;38614;43.472;23.936;2022-12-13T07:37:22;14.27;;;5.93;;
41829;SDS011;38614;43.472;23.936;2022-12-13T07:40:16;19.97;;;9.80;;
41829;SDS011;38614;43.472;23.936;2022-12-13T07:43:05;27.50;;;11.27;;
41829;SDS011;38614;43.472;23.936;2022-12-13T07:45:53;12.50;;;6.15;;
41829;SDS011;38614;43.472;23.936;2022-12-13T07:48:41;15.63;;;8.00;;
41829;SDS011;38614;43.472;23.936;2022-12-13T07:51:28;6.07;;;3.85;;
41829;SDS011;38614;43.472;23.936;2022-12-13T07:54:16;5.32;;;3.33;;
41829;SDS011;38614;43.472;23.936;2022-12-13T07:57:04;6.40;;;3.92;;
41829;SDS011;38614;43.472;23.936;2022-12-13T07:59:52;11.00;;;5.15;;
41829;SDS011;38614;43.472;23.936;2022-12-13T08:02:40;10.10;;;4.70;;
41829;SDS011;38614;43.472;23.936;2022-12-13T08:05:28;8.25;;;4.32;;
41829;SDS011;38614;43.472;23.936;2022-12-13T08:08:24;7.22;;;3.28;;
41829;SDS011;38614;43.472;23.936;2022-12-13T08:11:17;2.95;;;2.40;;
41829;SDS011;38614;43.472;23.936;2022-12-13T08:14:05;9.10;;;3.42;;
41829;SDS011;38614;43.472;23.936;2022-12-13T08:16:56;7.55;;;3.78;;
41829;SDS011;38614;43.472;23.936;2022-12-13T08:19:44;10.32;;;4.38;;
41829;SDS011;38614;43.472;23.936;2022-12-13T08:22:31;10.43;;;5.07;;
41829;SDS011;38614;43.472;23.936;2022-12-13T08:25:22;6.32;;;4.00;;
41829;SDS011;38614;43.472;23.936;2022-12-13T08:28:10;4.85;;;2.15;;
41829;SDS011;38614;43.472;23.936;2022-12-13T08:31:02;5.97;;;2.78;;
41829;SDS011;38614;43.472;23.936;2022-12-13T08:33:55;4.95;;;2.63;;
41829;SDS011;38614;43.472;23.936;2022-12-13T08:36:43;4.88;;;2.58;;
41829;SDS011;38614;43.472;23.936;2022-12-13T08:39:31;8.63;;;3.17;;
41829;SDS011;38614;43.472;23.936;2022-12-13T08:42:22;5.40;;;2.60;;
41829;SDS011;38614;43.472;23.936;2022-12-13T08:45:11;8.45;;;3.35;;
41829;SDS011;38614;43.472;23.936;2022-12-13T08:47:59;8.18;;;2.50;;
41829;SDS011;38614;43.472;23.936;2022-12-13T08:50:48;3.33;;;2.10;;
41829;SDS011;38614;43.472;23.936;2022-12-13T08:53:36;6.82;;;2.72;;
41829;SDS011;38614;43.472;23.936;2022-12-13T08:56:27;5.72;;;3.38;;
41829;SDS011;38614;43.472;23.936;2022-12-13T08:59:15;8.93;;;3.20;;
41829;SDS011;38614;43.472;23.936;2022-12-13T09:02:03;6.50;;;2.70;;
41829;SDS011;38614;43.472;23.936;2022-12-13T09:04:51;15.45;;;5.55;;
41829;SDS011;38614;43.472;23.936;2022-12-13T09:07:39;11.13;;;4.53;;
41829;SDS011;38614;43.472;23.936;2022-12-13T09:10:29;8.00;;;3.40;;
41829;SDS011;38614;43.472;23.936;2022-12-13T09:13:24;7.80;;;3.03;;
41829;SDS011;38614;43.472;23.936;2022-12-13T09:16:19;6.97;;;2.35;;
41829;SDS011;38614;43.472;23.936;2022-12-13T09:19:12;6.75;;;3.00;;
41829;SDS011;38614;43.472;23.936;2022-12-13T09:22:12;4.63;;;2.58;;
41829;SDS011;38614;43.472;23.936;2022-12-13T09:25:02;5.32;;;2.67;;
41829;SDS011;38614;43.472;23.936;2022-12-13T09:27:50;3.42;;;2.17;;
41829;SDS011;38614;43.472;23.936;2022-12-13T09:30:44;5.38;;;2.30;;
41829;SDS011;38614;43.472;23.936;2022-12-13T09:33:31;6.18;;;3.00;;
41829;SDS011;38614;43.472;23.936;2022-12-13T09:36:27;5.32;;;2.75;;
41829;SDS011;38614;43.472;23.936;2022-12-13T09:39:18;7.15;;;2.58;;
41829;SDS011;38614;43.472;23.936;2022-12-13T09:42:09;7.00;;;3.13;;
41829;SDS011;38614;43.472;23.936;2022-12-13T09:45:08;5.70;;;2.53;;
41829;SDS011;38614;43.472;23.936;2022-12-13T09:48:18;5.30;;;2.92;;
41829;SDS011;38614;43.472;23.936;2022-12-13T09:51:09;11.90;;;4.15;;
41829;SDS011;38614;43.472;23.936;2022-12-13T09:54:17;6.35;;;2.60;;
41829;SDS011;38614;43.472;23.936;2022-12-13T09:57:13;6.22;;;3.17;;
41829;SDS011;38614;43.472;23.936;2022-12-13T10:00:21;5.22;;;2.90;;
41829;SDS011;38614;43.472;23.936;2022-12-13T10:03:17;3.15;;;2.58;;
41829;SDS011;38614;43.472;23.936;2022-12-13T10:06:14;4.35;;;2.67;;
41829;SDS011;38614;43.472;23.936;2022-12-13T10:09:11;10.32;;;2.65;;
41829;SDS011;38614;43.472;23.936;2022-12-13T10:12:00;3.45;;;2.30;;
41829;SDS011;38614;43.472;23.936;2022-12-13T10:14:53;3.53;;;2.22;;
41829;SDS011;38614;43.472;23.936;2022-12-13T10:17:47;4.95;;;1.98;;
41829;SDS011;38614;43.472;23.936;2022-12-13T10:20:46;7.97;;;3.15;;
41829;SDS011;38614;43.472;23.936;2022-12-13T10:23:38;4.20;;;2.72;;
41829;SDS011;38614;43.472;23.936;2022-12-13T10:26:48;4.18;;;2.65;;
41829;SDS011;38614;43.472;23.936;2022-12-13T10:30:19;4.32;;;2.25;;
41829;SDS011;38614;43.472;23.936;2022-12-13T10:35:45;4.75;;;2.15;;
41829;SDS011;38614;43.472;23.936;2022-12-13T10:38:54;5.63;;;2.67;;
41829;SDS011;38614;43.472;23.936;2022-12-13T10:41:49;4.60;;;2.80;;
41829;SDS011;38614;43.472;23.936;2022-12-13T10:48:19;7.65;;;2.67;;
41829;SDS011;38614;43.472;23.936;2022-12-13T10:51:12;5.65;;;2.20;;
41829;SDS011;38614;43.472;23.936;2022-12-13T10:54:04;6.72;;;2.65;;
41829;SDS011;38614;43.472;23.936;2022-12-13T10:56:58;4.28;;;2.83;;
41829;SDS011;38614;43.472;23.936;2022-12-13T10:59:47;4.15;;;2.60;;
41829;SDS011;38614;43.472;23.936;2022-12-13T11:02:39;6.50;;;2.83;;
41829;SDS011;38614;43.472;23.936;2022-12-13T11:05:29;6.00;;;2.58;;
41829;SDS011;38614;43.472;23.936;2022-12-13T11:08:22;6.20;;;3.58;;
41829;SDS011;38614;43.472;23.936;2022-12-13T11:11:16;5.60;;;2.90;;
41829;SDS011;38614;43.472;23.936;2022-12-13T11:14:12;9.70;;;3.93;;
41829;SDS011;38614;43.472;23.936;2022-12-13T11:17:19;7.90;;;3.90;;
41829;SDS011;38614;43.472;23.936;2022-12-13T11:20:18;5.15;;;3.13;;
41829;SDS011;38614;43.472;23.936;2022-12-13T11:23:29;10.98;;;4.20;;
41829;SDS011;38614;43.472;23.936;2022-12-13T11:26:21;8.13;;;4.07;;
41829;SDS011;38614;43.472;23.936;2022-12-13T11:32:38;7.07;;;4.05;;
41829;SDS011;38614;43.472;23.936;2022-12-13T11:36:12;7.10;;;3.80;;
41829;SDS011;38614;43.472;23.936;2022-12-13T11:48:21;5.78;;;2.25;;
41829;SDS011;38614;43.472;23.936;2022-12-13T11:51:32;5.65;;;2.28;;
41829;SDS011;38614;43.472;23.936;2022-12-13T11:54:31;5.95;;;2.75;;
41829;SDS011;38614;43.472;23.936;2022-12-13T12:00:39;2.97;;;1.85;;
41829;SDS011;38614;43.472;23.936;2022-12-13T12:04:25;4.97;;;2.38;;
41829;SDS011;38614;43.472;23.936;2022-12-13T12:07:01;5.63;;;3.72;;
41829;SDS011;38614;43.472;23.936;2022-12-13T12:13:35;5.63;;;2.95;;
41829;SDS011;38614;43.472;23.936;2022-12-13T12:16:39;2.78;;;1.75;;
41829;SDS011;38614;43.472;23.936;2022-12-13T12:19:34;4.30;;;2.80;;
41829;SDS011;38614;43.472;23.936;2022-12-13T12:35:15;5.95;;;2.80;;
41829;SDS011;38614;43.472;23.936;2022-12-13T12:48:58;6.72;;;3.15;;
41829;SDS011;38614;43.472;23.936;2022-12-13T12:52:03;6.65;;;2.67;;
41829;SDS011;38614;43.472;23.936;2022-12-13T12:59:21;5.75;;;2.83;;
41829;SDS011;38614;43.472;23.936;2022-12-13T13:05:50;8.27;;;2.47;;
41829;SDS011;38614;43.472;23.936;2022-12-13T13:11:22;9.98;;;3.78;;
41829;SDS011;38614;43.472;23.936;2022-12-13T13:23:12;7.00;;;3.33;;
41829;SDS011;38614;43.472;23.936;2022-12-13T13:26:27;7.38;;;2.97;;
41829;SDS011;38614;43.472;23.936;2022-12-13T13:38:43;10.85;;;4.57;;
41829;SDS011;38614;43.472;23.936;2022-12-13T13:41:38;13.80;;;6.43;;
41829;SDS011;38614;43.472;23.936;2022-12-13T13:45:00;17.05;;;6.97;;
41829;SDS011;38614;43.472;23.936;2022-12-13T13:48:12;8.90;;;3.85;;
41829;SDS011;38614;43.472;23.936;2022-12-13T13:51:29;6.68;;;2.80;;
41829;SDS011;38614;43.472;23.936;2022-12-13T14:04:31;24.08;;;11.82;;
41829;SDS011;38614;43.472;23.936;2022-12-13T14:07:37;22.98;;;12.70;;
41829;SDS011;38614;43.472;23.936;2022-12-13T14:14:09;16.52;;;10.13;;
41829;SDS011;38614;43.472;23.936;2022-12-13T14:23:56;8.65;;;5.32;;
41829;SDS011;38614;43.472;23.936;2022-12-13T14:30:28;17.35;;;8.43;;
41829;SDS011;38614;43.472;23.936;2022-12-13T14:33:20;14.35;;;6.80;;
41829;SDS011;38614;43.472;23.936;2022-12-13T14:36:15;18.20;;;9.55;;
41829;SDS011;38614;43.472;23.936;2022-12-13T14:39:05;20.02;;;8.93;;
41829;SDS011;38614;43.472;23.936;2022-12-13T14:42:20;28.38;;;10.43;;
41829;SDS011;38614;43.472;23.936;2022-12-13T14:48:15;27.30;;;9.88;;
41829;SDS011;38614;43.472;23.936;2022-12-13T14:51:23;23.05;;;10.63;;
41829;SDS011;38614;43.472;23.936;2022-12-13T14:54:19;19.20;;;9.13;;
41829;SDS011;38614;43.472;23.936;2022-12-13T14:57:13;18.55;;;9.45;;
41829;SDS011;38614;43.472;23.936;2022-12-13T15:00:21;83.95;;;21.92;;
41829;SDS011;38614;43.472;23.936;2022-12-13T15:03:22;72.13;;;21.00;;
41829;SDS011;38614;43.472;23.936;2022-12-13T15:06:12;54.07;;;18.90;;
41829;SDS011;38614;43.472;23.936;2022-12-13T15:09:00;42.10;;;15.65;;
41829;SDS011;38614;43.472;23.936;2022-12-13T15:11:47;40.53;;;14.90;;
41829;SDS011;38614;43.472;23.936;2022-12-13T15:14:38;40.30;;;15.60;;
41829;SDS011;38614;43.472;23.936;2022-12-13T15:17:33;52.85;;;17.15;;
41829;SDS011;38614;43.472;23.936;2022-12-13T15:20:29;50.88;;;18.20;;
41829;SDS011;38614;43.472;23.936;2022-12-13T15:23:25;50.20;;;17.80;;
41829;SDS011;38614;43.472;23.936;2022-12-13T15:26:21;46.75;;;17.92;;
41829;SDS011;38614;43.472;23.936;2022-12-13T15:29:16;61.03;;;21.05;;
41829;SDS011;38614;43.472;23.936;2022-12-13T15:32:12;53.08;;;20.10;;
41829;SDS011;38614;43.472;23.936;2022-12-13T15:35:13;61.78;;;24.20;;
41829;SDS011;38614;43.472;23.936;2022-12-13T15:38:02;56.70;;;22.55;;
41829;SDS011;38614;43.472;23.936;2022-12-13T15:40:50;58.15;;;22.25;;
41829;SDS011;38614;43.472;23.936;2022-12-13T15:43:43;60.83;;;23.95;;
41829;SDS011;38614;43.472;23.936;2022-12-13T15:46:35;58.00;;;26.65;;
41829;SDS011;38614;43.472;23.936;2022-12-13T15:57:55;82.53;;;35.10;;
41829;SDS011;38614;43.472;23.936;2022-12-13T16:00:47;103.75;;;39.95;;
41829;SDS011;38614;43.472;23.936;2022-12-13T16:03:41;169.75;;;61.40;;
41829;SDS011;38614;43.472;23.936;2022-12-13T16:06:31;150.43;;;67.30;;
41829;SDS011;38614;43.472;23.936;2022-12-13T16:09:20;151.27;;;67.30;;
41829;SDS011;38614;43.472;23.936;2022-12-13T16:12:13;148.98;;;74.20;;
41829;SDS011;38614;43.472;23.936;2022-12-13T16:18:59;127.32;;;56.70;;
41829;SDS011;38614;43.472;23.936;2022-12-13T16:21:33;151.63;;;59.80;;
41829;SDS011;38614;43.472;23.936;2022-12-13T16:24:22;108.07;;;53.42;;
41829;SDS011;38614;43.472;23.936;2022-12-13T16:27:10;96.85;;;42.67;;
41829;SDS011;38614;43.472;23.936;2022-12-13T16:29:58;116.82;;;50.22;;
41829;SDS011;38614;43.472;23.936;2022-12-13T16:32:47;92.40;;;42.45;;
41829;SDS011;38614;43.472;23.936;2022-12-13T16:36:00;87.70;;;42.30;;
41829;SDS011;38614;43.472;23.936;2022-12-13T16:38:48;92.43;;;41.42;;
41829;SDS011;38614;43.472;23.936;2022-12-13T16:41:41;97.65;;;37.85;;
41829;SDS011;38614;43.472;23.936;2022-12-13T16:44:33;75.25;;;30.85;;
41829;SDS011;38614;43.472;23.936;2022-12-13T16:47:23;57.22;;;23.27;;
41829;SDS011;38614;43.472;23.936;2022-12-13T16:50:32;48.08;;;20.23;;
41829;SDS011;38614;43.472;23.936;2022-12-13T16:53:20;38.67;;;19.00;;
41829;SDS011;38614;43.472;23.936;2022-12-13T16:56:08;36.05;;;17.10;;
41829;SDS011;38614;43.472;23.936;2022-12-13T16:59:00;43.33;;;18.30;;
41829;SDS011;38614;43.472;23.936;2022-12-13T17:01:48;47.80;;;18.98;;
41829;SDS011;38614;43.472;23.936;2022-12-13T17:04:45;53.47;;;22.40;;
41829;SDS011;38614;43.472;23.936;2022-12-13T17:07:36;44.65;;;18.98;;
41829;SDS011;38614;43.472;23.936;2022-12-13T17:10:24;42.35;;;20.25;;
41829;SDS011;38614;43.472;23.936;2022-12-13T17:13:12;45.90;;;20.38;;
41829;SDS011;38614;43.472;23.936;2022-12-13T17:16:02;61.85;;;22.65;;
41829;SDS011;38614;43.472;23.936;2022-12-13T17:18:53;63.03;;;25.05;;
41829;SDS011;38614;43.472;23.936;2022-12-13T17:21:44;64.63;;;26.33;;
41829;SDS011;38614;43.472;23.936;2022-12-13T17:24:36;66.13;;;28.83;;
41829;SDS011;38614;43.472;23.936;2022-12-13T17:27:24;80.68;;;33.50;;
41829;SDS011;38614;43.472;23.936;2022-12-13T17:30:15;72.47;;;31.23;;
41829;SDS011;38614;43.472;23.936;2022-12-13T17:33:07;69.07;;;28.08;;
41829;SDS011;38614;43.472;23.936;2022-12-13T17:35:59;55.38;;;25.67;;
41829;SDS011;38614;43.472;23.936;2022-12-13T17:38:50;75.47;;;27.92;;
41829;SDS011;38614;43.472;23.936;2022-12-13T17:41:55;79.22;;;30.23;;
41829;SDS011;38614;43.472;23.936;2022-12-13T17:44:44;68.47;;;29.88;;
41829;SDS011;38614;43.472;23.936;2022-12-13T17:47:32;87.40;;;33.92;;
41829;SDS011;38614;43.472;23.936;2022-12-13T17:50:27;70.13;;;32.00;;
41829;SDS011;38614;43.472;23.936;2022-12-13T17:53:15;161.40;;;59.47;;
41829;SDS011;38614;43.472;23.936;2022-12-13T17:56:03;99.68;;;44.03;;
41829;SDS011;38614;43.472;23.936;2022-12-13T17:58:56;97.65;;;41.20;;
41829;SDS011;38614;43.472;23.936;2022-12-13T18:01:44;80.80;;;33.88;;
41829;SDS011;38614;43.472;23.936;2022-12-13T18:04:32;81.15;;;36.28;;
41829;SDS011;38614;43.472;23.936;2022-12-13T18:07:20;105.90;;;42.75;;
41829;SDS011;38614;43.472;23.936;2022-12-13T18:10:08;102.93;;;39.05;;
41829;SDS011;38614;43.472;23.936;2022-12-13T18:12:57;87.45;;;39.63;;
41829;SDS011;38614;43.472;23.936;2022-12-13T18:15:47;109.55;;;41.17;;
41829;SDS011;38614;43.472;23.936;2022-12-13T18:18:36;106.63;;;39.25;;
41829;SDS011;38614;43.472;23.936;2022-12-13T18:21:24;98.47;;;39.83;;
41829;SDS011;38614;43.472;23.936;2022-12-13T18:24:13;115.13;;;37.70;;
41829;SDS011;38614;43.472;23.936;2022-12-13T18:27:01;117.88;;;42.38;;
41829;SDS011;38614;43.472;23.936;2022-12-13T18:29:48;101.85;;;40.05;;
41829;SDS011;38614;43.472;23.936;2022-12-13T18:32:41;106.72;;;38.22;;
41829;SDS011;38614;43.472;23.936;2022-12-13T18:35:29;74.10;;;33.42;;
41829;SDS011;38614;43.472;23.936;2022-12-13T18:38:17;83.97;;;30.02;;
41829;SDS011;38614;43.472;23.936;2022-12-13T18:41:08;61.97;;;25.35;;
41829;SDS011;38614;43.472;23.936;2022-12-13T18:44:01;61.45;;;25.88;;
41829;SDS011;38614;43.472;23.936;2022-12-13T18:46:51;53.97;;;22.85;;
41829;SDS011;38614;43.472;23.936;2022-12-13T18:49:39;55.65;;;20.88;;
41829;SDS011;38614;43.472;23.936;2022-12-13T18:52:27;52.60;;;20.23;;
41829;SDS011;38614;43.472;23.936;2022-12-13T18:55:14;58.45;;;25.13;;
41829;SDS011;38614;43.472;23.936;2022-12-13T18:58:02;45.78;;;20.25;;
41829;SDS011;38614;43.472;23.936;2022-12-13T19:00:50;47.30;;;24.08;;
41829;SDS011;38614;43.472;23.936;2022-12-13T19:03:38;182.95;;;74.28;;
41829;SDS011;38614;43.472;23.936;2022-12-13T19:06:29;118.43;;;50.72;;
41829;SDS011;38614;43.472;23.936;2022-12-13T19:09:17;50.63;;;24.60;;
41829;SDS011;38614;43.472;23.936;2022-12-13T19:12:05;43.83;;;21.25;;
41829;SDS011;38614;43.472;23.936;2022-12-13T19:15:14;40.75;;;21.30;;
41829;SDS011;38614;43.472;23.936;2022-12-13T19:18:05;50.95;;;23.77;;